createdAt,value
2018-03-07T00:01:07.602Z,6.57
2018-03-07T00:03:35.155Z,5.40
2018-03-07T00:06:02.705Z,5.57
2018-03-07T00:08:30.364Z,6.43
2018-03-07T00:10:58.688Z,6.00
2018-03-07T00:13:26.218Z,6.37
2018-03-07T00:15:53.722Z,9.93
2018-03-07T00:18:21.292Z,6.97
2018-03-07T00:20:49.585Z,6.20
2018-03-07T00:23:17.858Z,5.20
2018-03-07T00:25:45.430Z,8.13
2018-03-07T00:28:12.967Z,5.70
2018-03-07T00:30:41.741Z,5.87
2018-03-07T00:33:09.326Z,6.27
2018-03-07T00:35:37.625Z,5.93
2018-03-07T00:38:05.169Z,7.70
2018-03-07T00:40:32.743Z,10.47
2018-03-07T00:43:00.270Z,6.33
2018-03-07T00:45:28.576Z,7.87
2018-03-07T00:47:56.166Z,6.60
2018-03-07T00:50:23.711Z,8.60
2018-03-07T00:52:51.220Z,7.30
2018-03-07T00:55:18.806Z,7.07
2018-03-07T00:57:46.366Z,8.10
2018-03-07T01:00:13.939Z,6.93
2018-03-07T01:02:41.499Z,6.60
2018-03-07T01:05:09.055Z,7.90
2018-03-07T01:07:36.654Z,8.77
2018-03-07T01:10:04.203Z,7.70
2018-03-07T01:12:31.734Z,6.80
2018-03-07T01:14:59.243Z,7.93
2018-03-07T01:17:26.810Z,7.90
2018-03-07T01:19:54.310Z,9.30
2018-03-07T01:22:21.855Z,8.23
2018-03-07T01:24:50.146Z,7.33
2018-03-07T01:27:17.728Z,11.30
2018-03-07T01:29:45.229Z,7.57
2018-03-07T01:32:13.533Z,7.10
2018-03-07T01:34:41.043Z,8.83
2018-03-07T01:37:08.582Z,7.10
2018-03-07T01:39:36.135Z,7.10
2018-03-07T01:42:03.634Z,5.93
2018-03-07T01:44:31.572Z,7.25
2018-03-07T01:46:59.118Z,6.70
2018-03-07T01:49:26.630Z,8.13
2018-03-07T01:52:00.930Z,6.10
2018-03-07T01:54:28.445Z,8.93
2018-03-07T01:56:55.950Z,7.73
2018-03-07T01:59:23.838Z,8.10
2018-03-07T02:01:52.119Z,7.37
2018-03-07T02:04:21.287Z,7.00
2018-03-07T02:06:48.877Z,6.72
2018-03-07T02:09:16.414Z,6.73
2018-03-07T02:11:44.729Z,8.10
2018-03-07T02:14:13.452Z,5.93
2018-03-07T02:16:40.981Z,6.47
2018-03-07T02:19:08.522Z,8.63
2018-03-07T02:21:36.827Z,6.57
2018-03-07T02:24:04.323Z,8.40
2018-03-07T02:26:31.826Z,7.20
2018-03-07T02:29:00.149Z,7.20
2018-03-07T02:31:27.687Z,5.22
2018-03-07T02:33:55.944Z,5.70
2018-03-07T02:36:33.042Z,6.53
2018-03-07T02:39:00.576Z,6.30
2018-03-07T02:41:28.867Z,7.20
2018-03-07T02:43:57.158Z,7.87
2018-03-07T02:46:24.666Z,6.20
2018-03-07T02:48:52.200Z,6.73
2018-03-07T02:51:19.731Z,6.55
2018-03-07T02:53:47.234Z,7.30
2018-03-07T02:56:14.735Z,6.00
2018-03-07T02:58:43.070Z,6.45
2018-03-07T03:01:10.609Z,7.73
2018-03-07T03:03:38.134Z,6.93
2018-03-07T03:06:06.472Z,7.50
2018-03-07T03:08:33.999Z,5.93
2018-03-07T03:11:01.507Z,6.23
2018-03-07T03:13:29.029Z,6.93
2018-03-07T03:15:56.555Z,7.07
2018-03-07T03:18:24.145Z,5.57
2018-03-07T03:20:51.674Z,5.40
2018-03-07T03:23:19.937Z,5.87
2018-03-07T03:25:48.214Z,5.25
2018-03-07T03:28:16.547Z,6.30
2018-03-07T03:30:44.058Z,6.25
2018-03-07T03:33:11.582Z,6.40
2018-03-07T03:35:39.134Z,6.70
2018-03-07T03:38:06.642Z,6.37
2018-03-07T03:40:34.170Z,6.62
2018-03-07T03:43:01.711Z,5.50
2018-03-07T03:45:29.255Z,5.50
2018-03-07T03:47:56.762Z,6.03
2018-03-07T03:50:25.078Z,6.12
2018-03-07T03:52:52.614Z,8.13
2018-03-07T03:55:20.153Z,4.70
2018-03-07T03:57:48.485Z,7.25
2018-03-07T04:00:15.993Z,5.65
2018-03-07T04:02:44.267Z,5.53
2018-03-07T04:05:12.615Z,5.60
2018-03-07T04:07:40.133Z,6.53
2018-03-07T04:10:07.670Z,6.07
2018-03-07T04:12:35.993Z,6.13
2018-03-07T04:15:03.498Z,6.57
2018-03-07T04:17:31.026Z,5.23
2018-03-07T04:19:58.585Z,5.23
2018-03-07T04:22:26.114Z,4.75
2018-03-07T04:24:53.642Z,5.10
2018-03-07T04:27:21.964Z,6.43
2018-03-07T04:29:49.465Z,4.93
2018-03-07T04:32:16.974Z,5.45
2018-03-07T04:34:44.522Z,6.33
2018-03-07T04:37:12.034Z,5.15
2018-03-07T04:39:40.302Z,5.33
2018-03-07T04:42:07.823Z,5.47
2018-03-07T04:44:35.353Z,6.50
2018-03-07T04:47:03.633Z,5.03
2018-03-07T04:49:31.942Z,5.40
2018-03-07T04:51:59.482Z,5.40
2018-03-07T04:54:27.022Z,5.10
2018-03-07T04:56:54.593Z,6.10
2018-03-07T04:59:22.890Z,4.72
2018-03-07T05:01:50.417Z,4.40
2018-03-07T05:04:18.726Z,4.62
2018-03-07T05:06:46.258Z,6.72
2018-03-07T05:09:13.787Z,6.60
2018-03-07T05:11:41.346Z,5.20
2018-03-07T05:14:09.334Z,4.80
2018-03-07T05:16:36.866Z,6.32
2018-03-07T05:19:04.413Z,5.45
2018-03-07T05:21:31.937Z,5.10
2018-03-07T05:24:00.234Z,3.85
2018-03-07T05:26:27.794Z,4.97
2018-03-07T05:28:55.302Z,6.27
2018-03-07T05:31:22.806Z,4.27
2018-03-07T05:33:50.333Z,4.07
2018-03-07T05:36:17.834Z,6.00
2018-03-07T05:38:45.337Z,4.90
2018-03-07T05:41:12.873Z,5.47
2018-03-07T05:43:40.402Z,3.77
2018-03-07T05:46:07.938Z,4.78
2018-03-07T05:48:36.255Z,4.70
2018-03-07T05:51:03.786Z,4.43
2018-03-07T05:53:31.338Z,5.47
2018-03-07T05:55:59.652Z,5.23
2018-03-07T05:58:27.187Z,4.70
2018-03-07T06:00:54.724Z,3.50
2018-03-07T06:03:23.062Z,4.47
2018-03-07T06:05:50.557Z,4.10
2018-03-07T06:08:18.078Z,3.63
2018-03-07T06:10:45.621Z,4.97
2018-03-07T06:13:13.126Z,6.20
2018-03-07T06:15:40.698Z,4.13
2018-03-07T06:18:08.217Z,5.33
2018-03-07T06:20:35.745Z,3.60
2018-03-07T06:23:03.282Z,4.10
2018-03-07T06:25:31.624Z,3.73
2018-03-07T06:27:59.163Z,3.83
2018-03-07T06:30:26.679Z,4.20
2018-03-07T06:32:55.023Z,4.30
2018-03-07T06:35:22.561Z,3.50
2018-03-07T06:37:50.102Z,4.13
2018-03-07T06:40:17.650Z,3.67
2018-03-07T06:42:45.962Z,3.83
2018-03-07T06:45:13.496Z,3.35
2018-03-07T06:47:41.063Z,3.97
2018-03-07T06:50:08.606Z,4.30
2018-03-07T06:52:36.895Z,3.83
2018-03-07T06:55:04.891Z,5.60
2018-03-07T06:57:32.414Z,4.27
2018-03-07T07:00:00.726Z,3.83
2018-03-07T07:02:28.293Z,3.90
2018-03-07T07:04:55.836Z,4.60
2018-03-07T07:07:23.370Z,3.63
2018-03-07T07:09:51.697Z,4.43
2018-03-07T07:12:19.215Z,7.70
2018-03-07T07:14:47.483Z,4.80
2018-03-07T07:17:15.795Z,5.47
2018-03-07T07:19:43.322Z,5.27
2018-03-07T07:22:11.598Z,6.20
2018-03-07T07:24:39.605Z,6.67
2018-03-07T07:27:07.137Z,6.33
2018-03-07T07:29:34.666Z,6.77
2018-03-07T07:32:02.272Z,5.93
2018-03-07T07:34:29.778Z,8.73
2018-03-07T07:36:57.322Z,5.83
2018-03-07T07:39:24.863Z,5.13
2018-03-07T07:41:52.358Z,7.27
2018-03-07T07:44:20.385Z,8.40
2018-03-07T07:46:47.997Z,5.18
2018-03-07T07:49:18.801Z,6.40
2018-03-07T07:51:46.347Z,7.20
2018-03-07T07:54:14.005Z,4.80
2018-03-07T07:56:41.678Z,9.53
2018-03-07T07:59:09.195Z,6.80
2018-03-07T08:01:37.607Z,8.97
2018-03-07T08:04:05.109Z,4.00
2018-03-07T08:06:33.394Z,5.50
2018-03-07T08:09:00.966Z,4.13
2018-03-07T08:11:30.142Z,6.47
2018-03-07T08:13:57.659Z,4.00
2018-03-07T08:16:25.222Z,4.30
2018-03-07T08:18:52.738Z,4.20
2018-03-07T08:21:21.041Z,4.70
2018-03-07T08:23:48.618Z,3.63
2018-03-07T08:26:16.183Z,7.07
2018-03-07T08:28:43.819Z,5.50
2018-03-07T08:31:12.021Z,3.87
2018-03-07T08:33:39.541Z,4.20
2018-03-07T08:36:07.854Z,6.27
2018-03-07T08:38:35.422Z,4.60
2018-03-07T08:41:02.938Z,7.53
2018-03-07T08:43:31.236Z,4.40
2018-03-07T08:45:58.814Z,3.00
2018-03-07T08:48:26.350Z,4.33
2018-03-07T08:50:53.864Z,4.23
2018-03-07T08:53:21.431Z,5.33
2018-03-07T08:55:48.974Z,3.70
2018-03-07T08:58:16.483Z,6.00
2018-03-07T09:00:44.031Z,5.30
2018-03-07T09:03:12.303Z,4.07
2018-03-07T09:05:40.590Z,4.40
2018-03-07T09:08:08.906Z,4.87
2018-03-07T09:10:36.430Z,4.80
2018-03-07T09:13:03.965Z,3.37
2018-03-07T09:15:32.283Z,3.33
2018-03-07T09:17:59.779Z,5.10
2018-03-07T09:20:27.306Z,4.30
2018-03-07T09:22:54.854Z,5.22
2018-03-07T09:25:22.399Z,8.10
2018-03-07T09:27:50.683Z,5.67
2018-03-07T09:30:18.998Z,3.60
2018-03-07T09:32:46.544Z,5.90
2018-03-07T09:48:27.676Z,60.57
2018-03-07T09:50:55.950Z,64.20
2018-03-07T09:53:24.285Z,70.33
2018-03-07T09:55:51.847Z,83.70
2018-03-07T09:58:19.364Z,96.67
2018-03-07T10:00:46.898Z,109.73
2018-03-07T10:03:14.509Z,118.43
2018-03-07T10:05:42.034Z,118.80
2018-03-07T10:08:10.412Z,130.63
2018-03-07T10:10:38.778Z,135.67
2018-03-07T10:13:07.071Z,142.17
2018-03-07T10:15:35.346Z,146.47
2018-03-07T10:18:02.914Z,135.73
2018-03-07T10:20:31.202Z,128.73
2018-03-07T10:22:58.794Z,122.20
2018-03-07T10:25:26.358Z,122.20
2018-03-07T10:27:53.875Z,113.70
2018-03-07T10:30:21.405Z,105.93
2018-03-07T10:32:48.948Z,99.17
2018-03-07T10:35:16.462Z,100.27
2018-03-07T10:37:44.011Z,98.40
2018-03-07T10:40:11.551Z,97.97
2018-03-07T10:42:39.850Z,100.07
2018-03-07T10:45:07.397Z,90.53
2018-03-07T10:47:35.722Z,93.63
2018-03-07T10:50:03.258Z,98.73
2018-03-07T10:52:30.771Z,91.20
2018-03-07T10:54:58.301Z,84.83
2018-03-07T10:57:25.838Z,85.57
2018-03-07T10:59:53.386Z,79.40
2018-03-07T11:02:20.956Z,74.53
2018-03-07T11:04:48.471Z,70.80
2018-03-07T11:07:16.040Z,68.23
2018-03-07T11:09:44.390Z,69.00
2018-03-07T11:12:11.901Z,68.23
2018-03-07T11:14:39.499Z,64.40
2018-03-07T11:17:07.007Z,64.77
2018-03-07T11:19:35.340Z,63.67
2018-03-07T11:22:02.877Z,60.80
2018-03-07T11:24:30.410Z,63.97
2018-03-07T11:26:58.685Z,62.63
2018-03-07T11:29:26.979Z,60.63
2018-03-07T11:31:54.539Z,56.90
2018-03-07T11:34:22.129Z,57.37
2018-03-07T11:36:49.661Z,54.70
2018-03-07T11:39:17.334Z,60.87
2018-03-07T11:41:44.898Z,57.13
2018-03-07T11:44:12.421Z,52.33
2018-03-07T11:46:40.752Z,49.83
2018-03-07T11:49:08.275Z,46.97
2018-03-07T11:51:35.812Z,48.00
2018-03-07T11:54:04.139Z,60.93
2018-03-07T11:56:31.678Z,43.40
2018-03-07T11:58:59.218Z,44.63
2018-03-07T12:01:27.590Z,42.30
2018-03-07T12:03:55.874Z,41.90
2018-03-07T12:06:24.801Z,42.28
2018-03-07T12:08:52.388Z,40.23
2018-03-07T12:11:20.394Z,42.03
2018-03-07T12:13:48.810Z,39.87
2018-03-07T12:16:16.346Z,39.33
2018-03-07T12:18:43.866Z,37.33
2018-03-07T12:21:11.415Z,36.70
2018-03-07T12:23:38.972Z,39.07
2018-03-07T12:26:06.522Z,37.00
2018-03-07T12:28:34.042Z,39.00
2018-03-07T12:31:03.117Z,36.20
2018-03-07T12:33:31.438Z,36.27
2018-03-07T12:35:58.946Z,34.47
2018-03-07T12:38:26.506Z,38.80
2018-03-07T12:40:54.041Z,33.90
2018-03-07T12:43:22.121Z,32.80
2018-03-07T12:45:50.346Z,30.87
2018-03-07T12:48:17.890Z,30.60
2018-03-07T12:50:46.337Z,29.87
2018-03-07T12:53:14.171Z,27.77
2018-03-07T12:55:41.715Z,28.30
2018-03-07T12:58:09.280Z,29.30
2018-03-07T13:00:36.814Z,29.60
2018-03-07T13:03:05.477Z,27.10
2018-03-07T13:05:32.982Z,27.57
2018-03-07T13:08:00.538Z,25.40
2018-03-07T13:10:28.056Z,25.53
2018-03-07T13:12:55.558Z,26.40
2018-03-07T13:15:23.083Z,22.60
2018-03-07T13:17:50.594Z,20.77
2018-03-07T13:20:18.131Z,23.17
2018-03-07T13:22:45.663Z,21.63
2018-03-07T13:25:13.230Z,23.60
2018-03-07T13:27:41.513Z,21.73
2018-03-07T13:30:10.642Z,24.10
2018-03-07T13:32:38.278Z,19.37
2018-03-07T13:35:06.627Z,18.53
2018-03-07T13:37:34.195Z,23.73
2018-03-07T13:40:01.702Z,20.97
2018-03-07T13:42:29.968Z,20.60
2018-03-07T13:44:57.540Z,18.03
2018-03-07T13:47:25.085Z,19.50
2018-03-07T14:03:06.371Z,18.07
2018-03-07T14:05:33.917Z,17.33
2018-03-07T14:08:01.431Z,17.53
2018-03-07T14:10:29.056Z,21.03
2018-03-07T14:12:56.582Z,15.53
2018-03-07T14:15:25.461Z,19.50
2018-03-07T14:17:53.801Z,21.27
2018-03-07T14:20:21.338Z,18.50
2018-03-07T14:22:48.846Z,17.70
2018-03-07T14:25:16.388Z,16.93
2018-03-07T14:27:44.029Z,16.70
2018-03-07T14:30:11.610Z,17.20
2018-03-07T14:32:39.164Z,16.17
2018-03-07T14:35:06.681Z,17.03
2018-03-07T14:37:34.231Z,17.10
2018-03-07T14:40:01.867Z,15.50
2018-03-07T14:42:29.410Z,14.77
2018-03-07T14:44:57.005Z,14.93
2018-03-07T14:47:25.321Z,13.77
2018-03-07T14:49:52.901Z,15.43
2018-03-07T14:52:20.505Z,16.27
2018-03-07T14:54:49.571Z,14.10
2018-03-07T14:57:17.089Z,14.90
2018-03-07T14:59:44.769Z,15.87
2018-03-07T15:02:12.409Z,13.10
2018-03-07T15:04:39.988Z,14.83
2018-03-07T15:07:07.548Z,14.40
2018-03-07T15:09:35.125Z,12.37
2018-03-07T15:12:02.670Z,14.60
2018-03-07T15:14:30.319Z,14.73
2018-03-07T15:16:57.901Z,12.60
2018-03-07T15:19:25.518Z,12.90
2018-03-07T15:21:53.077Z,12.37
2018-03-07T15:24:20.664Z,12.83
2018-03-07T15:26:48.210Z,12.63
2018-03-07T15:29:15.755Z,11.90
2018-03-07T15:31:44.071Z,12.00
2018-03-07T15:34:11.607Z,13.07
2018-03-07T15:36:39.181Z,13.30
2018-03-07T15:39:06.804Z,11.67
2018-03-07T15:41:35.504Z,11.90
2018-03-07T15:44:03.053Z,11.50
2018-03-07T15:46:31.445Z,10.77
2018-03-07T15:48:59.025Z,12.23
2018-03-07T15:51:26.542Z,13.97
2018-03-07T15:53:54.919Z,13.45
2018-03-07T15:56:23.260Z,12.30
2018-03-07T15:58:50.914Z,13.60
2018-03-07T16:01:18.592Z,12.83
2018-03-07T16:03:46.180Z,11.03
2018-03-07T16:06:14.542Z,11.07
2018-03-07T16:08:42.082Z,11.83
2018-03-07T16:11:09.602Z,12.70
2018-03-07T16:13:38.635Z,11.23
2018-03-07T16:16:06.167Z,10.10
2018-03-07T16:18:33.754Z,10.67
2018-03-07T16:21:01.367Z,9.20
2018-03-07T16:23:29.787Z,10.93
2018-03-07T16:25:57.471Z,11.73
2018-03-07T16:28:25.034Z,9.60
2018-03-07T16:30:53.415Z,9.53
2018-03-07T16:33:21.049Z,11.23
2018-03-07T16:35:48.609Z,12.20
2018-03-07T16:38:16.212Z,11.33
2018-03-07T16:40:43.747Z,9.50
2018-03-07T16:43:11.258Z,12.00
2018-03-07T16:45:39.568Z,11.73
2018-03-07T16:48:07.134Z,11.57
2018-03-07T16:50:34.700Z,10.43
2018-03-07T16:53:02.304Z,10.90
2018-03-07T16:55:30.627Z,11.07
2018-03-07T16:57:58.305Z,11.40
2018-03-07T17:00:25.878Z,10.50
2018-03-07T17:02:53.447Z,14.27
2018-03-07T17:05:20.972Z,10.27
2018-03-07T17:07:48.572Z,9.40
2018-03-07T17:10:16.910Z,10.13
2018-03-07T17:12:44.493Z,11.67
2018-03-07T17:15:12.168Z,10.60
2018-03-07T17:17:39.792Z,11.83
2018-03-07T17:20:07.370Z,9.48
2018-03-07T17:22:36.213Z,12.17
2018-03-07T17:25:04.004Z,12.65
2018-03-07T17:27:31.672Z,12.70
2018-03-07T17:29:59.446Z,9.80
2018-03-07T17:32:27.789Z,9.40
2018-03-07T17:34:56.569Z,10.07
2018-03-07T17:37:25.218Z,9.60
2018-03-07T17:39:54.359Z,10.23
2018-03-07T17:42:23.118Z,10.70
2018-03-07T17:44:52.185Z,9.50
2018-03-07T17:47:21.352Z,9.93
2018-03-07T17:49:50.014Z,9.80
2018-03-07T17:52:17.561Z,8.90
2018-03-07T17:54:45.156Z,11.07
2018-03-07T17:57:12.763Z,9.00
2018-03-07T17:59:40.493Z,9.73
2018-03-07T18:02:08.066Z,9.67
2018-03-07T18:04:35.637Z,9.33
2018-03-07T18:07:03.262Z,9.40
2018-03-07T18:09:30.793Z,10.33
2018-03-07T18:11:58.302Z,9.10
2018-03-07T18:14:25.912Z,7.60
2018-03-07T18:16:54.257Z,8.00
2018-03-07T18:19:21.826Z,6.83
2018-03-07T18:21:49.427Z,7.83
2018-03-07T18:24:17.003Z,8.55
2018-03-07T18:26:44.662Z,9.03
2018-03-07T18:29:12.346Z,7.27
2018-03-07T18:31:39.923Z,9.93
2018-03-07T18:34:07.547Z,8.20
2018-03-07T18:36:36.662Z,7.30
2018-03-07T18:39:04.525Z,9.70
2018-03-07T18:41:32.051Z,8.17
2018-03-07T18:44:00.386Z,8.30
2018-03-07T18:46:27.938Z,7.85
2018-03-07T18:48:55.509Z,7.40
2018-03-07T18:51:23.066Z,7.57
2018-03-07T18:53:52.042Z,8.30
2018-03-07T18:56:22.058Z,7.90
2018-03-07T18:58:50.233Z,8.57
2018-03-07T19:01:17.747Z,8.23
2018-03-07T19:03:47.502Z,8.13
2018-03-07T19:06:16.086Z,7.53
2018-03-07T19:08:45.080Z,9.23
2018-03-07T19:11:13.689Z,7.93
2018-03-07T19:13:41.311Z,6.93
2018-03-07T19:16:10.218Z,7.57
2018-03-07T19:18:40.235Z,7.10
2018-03-07T19:21:08.802Z,7.73
2018-03-07T19:23:37.813Z,9.70
2018-03-07T19:26:06.394Z,6.50
2018-03-07T19:28:33.979Z,7.67
2018-03-07T19:31:01.498Z,7.90
2018-03-07T19:33:29.068Z,8.23
2018-03-07T19:35:56.647Z,7.60
2018-03-07T19:38:24.142Z,6.00
2018-03-07T19:40:52.887Z,7.30
2018-03-07T19:43:21.367Z,7.70
2018-03-07T19:45:48.873Z,6.87
2018-03-07T19:48:16.437Z,8.83
2018-03-07T19:50:45.892Z,7.23
2018-03-07T19:53:14.339Z,7.20
2018-03-07T19:55:42.995Z,6.47
2018-03-07T19:58:10.528Z,8.53
2018-03-07T20:00:38.092Z,7.03
2018-03-07T20:03:06.923Z,6.70
2018-03-07T20:05:35.768Z,7.20
2018-03-07T20:08:04.214Z,9.70
2018-03-07T20:10:32.923Z,6.17
2018-03-07T20:13:01.464Z,8.10
2018-03-07T20:15:30.297Z,6.40
2018-03-07T20:17:59.271Z,7.77
2018-03-07T20:20:26.920Z,9.47
2018-03-07T20:22:54.514Z,8.17
2018-03-07T20:25:22.175Z,6.80
2018-03-07T20:27:49.827Z,7.80
2018-03-07T20:30:17.345Z,5.80
2018-03-07T20:32:45.101Z,6.77
2018-03-07T20:35:13.746Z,6.13
2018-03-07T20:37:41.327Z,8.07
2018-03-07T20:40:10.811Z,7.23
2018-03-07T20:42:39.243Z,7.00
2018-03-07T20:45:08.131Z,7.40
2018-03-07T20:47:36.423Z,7.20
2018-03-07T20:50:04.743Z,6.53
2018-03-07T20:52:32.259Z,8.93
2018-03-07T20:55:00.532Z,7.13
2018-03-07T20:57:28.842Z,6.93
2018-03-07T20:59:57.538Z,7.70
2018-03-07T21:02:25.974Z,8.30
2018-03-07T21:04:53.524Z,9.77
2018-03-07T21:07:21.162Z,6.60
2018-03-07T21:09:50.750Z,8.40
2018-03-07T21:12:20.460Z,11.17
2018-03-07T21:14:49.249Z,9.60
2018-03-07T21:17:17.840Z,8.13
2018-03-07T21:32:48.448Z,7.90
2018-03-07T21:35:15.955Z,10.43
2018-03-07T21:37:44.595Z,10.27
2018-03-07T21:40:14.412Z,14.73
2018-03-07T21:42:44.016Z,11.17
2018-03-07T21:45:12.494Z,9.60
2018-03-07T21:47:40.039Z,7.70
2018-03-07T21:50:07.597Z,9.03
2018-03-07T21:52:35.146Z,11.07
2018-03-07T21:55:03.459Z,10.30
2018-03-07T21:57:31.038Z,8.73
2018-03-07T21:59:58.550Z,11.53
2018-03-07T22:02:26.890Z,8.23
2018-03-07T22:04:54.398Z,11.77
2018-03-07T22:07:21.913Z,11.40
2018-03-07T22:09:49.461Z,10.00
2018-03-07T22:12:16.988Z,7.10
2018-03-07T22:14:45.475Z,9.80
2018-03-07T22:17:13.018Z,8.03
2018-03-07T22:19:40.543Z,12.93
2018-03-07T22:22:08.074Z,7.60
2018-03-07T22:24:35.680Z,9.30
2018-03-07T22:27:03.584Z,9.13
2018-03-07T22:29:31.154Z,8.20
2018-03-07T22:31:58.824Z,8.00
2018-03-07T22:34:26.334Z,10.03
2018-03-07T22:36:54.635Z,9.33
2018-03-07T22:39:22.197Z,7.00
2018-03-07T22:41:49.726Z,9.90
2018-03-07T22:44:18.039Z,7.68
2018-03-07T22:46:45.599Z,6.63
2018-03-07T22:49:13.134Z,11.90
2018-03-07T22:51:40.642Z,8.57
2018-03-07T22:54:08.165Z,8.00
2018-03-07T22:56:35.700Z,7.67
2018-03-07T22:59:03.973Z,8.00
2018-03-07T23:01:32.299Z,6.97
2018-03-07T23:04:00.256Z,10.40
2018-03-07T23:06:27.757Z,7.07
2018-03-07T23:08:55.290Z,6.83
2018-03-07T23:11:22.820Z,8.10
2018-03-07T23:13:50.326Z,6.97
2018-03-07T23:16:17.869Z,6.33
2018-03-07T23:18:45.369Z,9.37
2018-03-07T23:21:12.881Z,11.70
2018-03-07T23:23:40.422Z,7.40
2018-03-07T23:26:07.949Z,8.70
2018-03-07T23:28:36.234Z,8.47
2018-03-07T23:31:04.566Z,7.17
2018-03-07T23:33:32.070Z,6.80
2018-03-07T23:36:00.362Z,12.60
2018-03-07T23:38:27.929Z,9.03
2018-03-07T23:40:55.440Z,6.73
2018-03-07T23:43:23.706Z,7.83
2018-03-07T23:45:51.252Z,8.53
2018-03-07T23:48:18.757Z,6.23
2018-03-07T23:50:47.077Z,8.87
2018-03-07T23:53:14.683Z,6.53
2018-03-07T23:55:42.173Z,7.53
2018-03-07T23:58:09.681Z,9.43
